sensor_id;sensor_type;location;lat;lon;timestamp;temperature;humidity
3198;DHT22;1611;49.394;11.136;2023-06-26T00:00:33;18.80;49.50
3198;DHT22;1611;49.394;11.136;2023-06-26T00:02:59;18.80;49.40
3198;DHT22;1611;49.394;11.136;2023-06-26T00:05:27;18.80;49.70
3198;DHT22;1611;49.394;11.136;2023-06-26T00:07:55;18.70;49.70
3198;DHT22;1611;49.394;11.136;2023-06-26T00:10:26;18.70;49.60
3198;DHT22;1611;49.394;11.136;2023-06-26T00:12:52;18.60;49.90
3198;DHT22;1611;49.394;11.136;2023-06-26T00:15:20;18.60;49.90
3198;DHT22;1611;49.394;11.136;2023-06-26T00:17:47;18.50;50.40
3198;DHT22;1611;49.394;11.136;2023-06-26T00:20:16;18.50;49.80
3198;DHT22;1611;49.394;11.136;2023-06-26T00:22:44;18.60;49.40
3198;DHT22;1611;49.394;11.136;2023-06-26T00:25:11;18.60;48.90
3198;DHT22;1611;49.394;11.136;2023-06-26T00:27:38;18.60;48.00
3198;DHT22;1611;49.394;11.136;2023-06-26T00:30:05;18.60;47.90
3198;DHT22;1611;49.394;11.136;2023-06-26T00:32:33;18.60;47.70
3198;DHT22;1611;49.394;11.136;2023-06-26T00:35:00;18.60;47.60
3198;DHT22;1611;49.394;11.136;2023-06-26T00:37:27;18.60;47.40
3198;DHT22;1611;49.394;11.136;2023-06-26T00:39:54;18.60;47.30
3198;DHT22;1611;49.394;11.136;2023-06-26T00:42:20;18.60;46.70
3198;DHT22;1611;49.394;11.136;2023-06-26T00:44:47;18.60;46.30
3198;DHT22;1611;49.394;11.136;2023-06-26T00:47:15;18.60;46.70
3198;DHT22;1611;49.394;11.136;2023-06-26T00:49:44;18.60;46.10
3198;DHT22;1611;49.394;11.136;2023-06-26T00:52:11;18.60;46.20
3198;DHT22;1611;49.394;11.136;2023-06-26T00:54:38;18.60;47.00
3198;DHT22;1611;49.394;11.136;2023-06-26T00:57:05;18.50;47.20
3198;DHT22;1611;49.394;11.136;2023-06-26T00:59:31;18.50;47.00
3198;DHT22;1611;49.394;11.136;2023-06-26T01:01:58;18.50;46.60
3198;DHT22;1611;49.394;11.136;2023-06-26T01:04:25;18.50;46.20
3198;DHT22;1611;49.394;11.136;2023-06-26T01:06:55;18.50;46.50
3198;DHT22;1611;49.394;11.136;2023-06-26T01:09:22;18.40;46.60
3198;DHT22;1611;49.394;11.136;2023-06-26T01:11:50;18.40;46.80
3198;DHT22;1611;49.394;11.136;2023-06-26T01:14:17;18.40;46.70
3198;DHT22;1611;49.394;11.136;2023-06-26T01:16:44;18.30;46.80
3198;DHT22;1611;49.394;11.136;2023-06-26T01:19:18;18.30;47.00
3198;DHT22;1611;49.394;11.136;2023-06-26T01:21:53;18.30;46.90
3198;DHT22;1611;49.394;11.136;2023-06-26T01:24:25;18.30;47.00
3198;DHT22;1611;49.394;11.136;2023-06-26T01:27:01;18.30;47.00
3198;DHT22;1611;49.394;11.136;2023-06-26T01:29:29;18.20;47.20
3198;DHT22;1611;49.394;11.136;2023-06-26T01:31:57;18.20;46.80
3198;DHT22;1611;49.394;11.136;2023-06-26T01:34:24;18.10;47.50
3198;DHT22;1611;49.394;11.136;2023-06-26T01:36:51;18.10;47.30
3198;DHT22;1611;49.394;11.136;2023-06-26T01:39:19;18.10;47.10
3198;DHT22;1611;49.394;11.136;2023-06-26T01:41:45;18.00;47.80
3198;DHT22;1611;49.394;11.136;2023-06-26T01:44:21;18.10;47.60
3198;DHT22;1611;49.394;11.136;2023-06-26T01:46:57;18.10;47.50
3198;DHT22;1611;49.394;11.136;2023-06-26T01:49:31;18.10;47.20
3198;DHT22;1611;49.394;11.136;2023-06-26T01:52:03;18.00;47.40
3198;DHT22;1611;49.394;11.136;2023-06-26T01:54:36;18.00;47.50
3198;DHT22;1611;49.394;11.136;2023-06-26T01:57:04;18.00;47.10
3198;DHT22;1611;49.394;11.136;2023-06-26T01:59:33;18.00;47.30
3198;DHT22;1611;49.394;11.136;2023-06-26T02:02:01;18.00;46.50
3198;DHT22;1611;49.394;11.136;2023-06-26T02:04:28;18.00;46.30
3198;DHT22;1611;49.394;11.136;2023-06-26T02:06:54;18.00;45.80
3198;DHT22;1611;49.394;11.136;2023-06-26T02:09:21;18.00;46.20
3198;DHT22;1611;49.394;11.136;2023-06-26T02:11:48;17.90;46.30
3198;DHT22;1611;49.394;11.136;2023-06-26T02:14:14;17.90;46.40
3198;DHT22;1611;49.394;11.136;2023-06-26T02:16:43;18.00;46.70
3198;DHT22;1611;49.394;11.136;2023-06-26T02:19:09;17.90;47.00
3198;DHT22;1611;49.394;11.136;2023-06-26T02:21:36;17.90;47.30
3198;DHT22;1611;49.394;11.136;2023-06-26T02:24:04;17.90;47.30
3198;DHT22;1611;49.394;11.136;2023-06-26T02:26:31;17.90;47.50
3198;DHT22;1611;49.394;11.136;2023-06-26T02:28:58;17.80;47.60
3198;DHT22;1611;49.394;11.136;2023-06-26T02:31:24;17.80;47.70
3198;DHT22;1611;49.394;11.136;2023-06-26T02:33:52;17.80;48.30
3198;DHT22;1611;49.394;11.136;2023-06-26T02:36:19;17.70;48.40
3198;DHT22;1611;49.394;11.136;2023-06-26T02:38:46;17.70;47.90
3198;DHT22;1611;49.394;11.136;2023-06-26T02:41:13;17.60;48.30
3198;DHT22;1611;49.394;11.136;2023-06-26T02:43:39;17.60;48.40
3198;DHT22;1611;49.394;11.136;2023-06-26T02:46:06;17.50;48.70
3198;DHT22;1611;49.394;11.136;2023-06-26T02:48:33;17.50;49.20
3198;DHT22;1611;49.394;11.136;2023-06-26T02:51:01;17.50;49.00
3198;DHT22;1611;49.394;11.136;2023-06-26T02:53:28;17.40;48.70
3198;DHT22;1611;49.394;11.136;2023-06-26T02:55:54;17.50;48.80
3198;DHT22;1611;49.394;11.136;2023-06-26T02:58:21;17.40;48.20
3198;DHT22;1611;49.394;11.136;2023-06-26T03:00:48;17.40;48.60
3198;DHT22;1611;49.394;11.136;2023-06-26T03:03:14;17.40;48.80
3198;DHT22;1611;49.394;11.136;2023-06-26T03:05:41;17.40;48.70
3198;DHT22;1611;49.394;11.136;2023-06-26T03:08:09;17.30;49.00
3198;DHT22;1611;49.394;11.136;2023-06-26T03:10:36;17.20;49.20
3198;DHT22;1611;49.394;11.136;2023-06-26T03:13:03;17.20;49.60
3198;DHT22;1611;49.394;11.136;2023-06-26T03:15:29;17.10;49.90
3198;DHT22;1611;49.394;11.136;2023-06-26T03:17:56;17.10;50.20
3198;DHT22;1611;49.394;11.136;2023-06-26T03:20:23;17.10;50.10
3198;DHT22;1611;49.394;11.136;2023-06-26T03:22:49;17.10;50.20
3198;DHT22;1611;49.394;11.136;2023-06-26T03:25:18;17.20;50.50
3198;DHT22;1611;49.394;11.136;2023-06-26T03:27:44;17.10;50.80
3198;DHT22;1611;49.394;11.136;2023-06-26T03:30:12;17.10;50.90
3198;DHT22;1611;49.394;11.136;2023-06-26T03:32:38;17.10;50.80
3198;DHT22;1611;49.394;11.136;2023-06-26T03:35:06;17.10;50.90
3198;DHT22;1611;49.394;11.136;2023-06-26T03:37:33;17.10;51.20
3198;DHT22;1611;49.394;11.136;2023-06-26T03:39:59;17.20;51.70
3198;DHT22;1611;49.394;11.136;2023-06-26T03:42:27;17.20;51.20
3198;DHT22;1611;49.394;11.136;2023-06-26T03:44:54;17.30;51.40
3198;DHT22;1611;49.394;11.136;2023-06-26T03:47:21;17.30;51.50
3198;DHT22;1611;49.394;11.136;2023-06-26T03:49:48;17.30;50.40
3198;DHT22;1611;49.394;11.136;2023-06-26T03:52:14;17.40;50.40
3198;DHT22;1611;49.394;11.136;2023-06-26T03:54:41;17.50;50.10
3198;DHT22;1611;49.394;11.136;2023-06-26T03:57:08;17.60;49.80
3198;DHT22;1611;49.394;11.136;2023-06-26T03:59:37;17.60;49.60
3198;DHT22;1611;49.394;11.136;2023-06-26T04:02:04;17.70;49.90
3198;DHT22;1611;49.394;11.136;2023-06-26T04:04:31;17.70;49.60
3198;DHT22;1611;49.394;11.136;2023-06-26T04:06:58;17.80;49.10
3198;DHT22;1611;49.394;11.136;2023-06-26T04:09:25;17.80;48.90
3198;DHT22;1611;49.394;11.136;2023-06-26T04:11:52;18.00;48.70
3198;DHT22;1611;49.394;11.136;2023-06-26T04:14:18;18.00;48.90
3198;DHT22;1611;49.394;11.136;2023-06-26T04:16:46;18.00;48.70
3198;DHT22;1611;49.394;11.136;2023-06-26T04:19:13;18.00;48.30
3198;DHT22;1611;49.394;11.136;2023-06-26T04:21:40;18.00;47.70
3198;DHT22;1611;49.394;11.136;2023-06-26T04:24:07;18.10;48.10
3198;DHT22;1611;49.394;11.136;2023-06-26T04:26:34;18.10;48.20
3198;DHT22;1611;49.394;11.136;2023-06-26T04:29:02;18.20;47.90
3198;DHT22;1611;49.394;11.136;2023-06-26T04:31:28;18.20;48.20
3198;DHT22;1611;49.394;11.136;2023-06-26T04:33:56;18.20;48.10
3198;DHT22;1611;49.394;11.136;2023-06-26T04:36:24;18.20;48.40
3198;DHT22;1611;49.394;11.136;2023-06-26T04:38:53;18.30;48.60
3198;DHT22;1611;49.394;11.136;2023-06-26T04:41:21;18.30;48.20
3198;DHT22;1611;49.394;11.136;2023-06-26T04:43:47;18.40;47.90
3198;DHT22;1611;49.394;11.136;2023-06-26T04:46:14;18.40;47.90
3198;DHT22;1611;49.394;11.136;2023-06-26T04:48:41;18.50;48.10
3198;DHT22;1611;49.394;11.136;2023-06-26T04:51:09;18.50;48.00
3198;DHT22;1611;49.394;11.136;2023-06-26T04:53:36;18.60;47.70
3198;DHT22;1611;49.394;11.136;2023-06-26T04:56:03;18.70;47.30
3198;DHT22;1611;49.394;11.136;2023-06-26T04:58:30;18.70;47.30
3198;DHT22;1611;49.394;11.136;2023-06-26T05:00:56;18.70;47.20
3198;DHT22;1611;49.394;11.136;2023-06-26T05:03:24;18.90;47.20
3198;DHT22;1611;49.394;11.136;2023-06-26T05:05:51;18.90;47.30
3198;DHT22;1611;49.394;11.136;2023-06-26T05:08:21;19.00;47.10
3198;DHT22;1611;49.394;11.136;2023-06-26T05:10:48;19.00;46.80
3198;DHT22;1611;49.394;11.136;2023-06-26T05:13:15;19.00;47.10
3198;DHT22;1611;49.394;11.136;2023-06-26T05:15:43;19.00;47.10
3198;DHT22;1611;49.394;11.136;2023-06-26T05:18:10;19.10;47.00
3198;DHT22;1611;49.394;11.136;2023-06-26T05:20:37;19.20;46.70
3198;DHT22;1611;49.394;11.136;2023-06-26T05:23:04;19.30;46.20
3198;DHT22;1611;49.394;11.136;2023-06-26T05:25:33;19.40;46.00
3198;DHT22;1611;49.394;11.136;2023-06-26T05:28:01;19.40;45.90
3198;DHT22;1611;49.394;11.136;2023-06-26T05:30:31;19.50;46.10
3198;DHT22;1611;49.394;11.136;2023-06-26T05:33:00;19.60;46.10
3198;DHT22;1611;49.394;11.136;2023-06-26T05:35:28;19.60;46.20
3198;DHT22;1611;49.394;11.136;2023-06-26T05:37:56;19.70;46.40
3198;DHT22;1611;49.394;11.136;2023-06-26T05:40:23;19.80;46.70
3198;DHT22;1611;49.394;11.136;2023-06-26T05:42:52;19.80;46.30
3198;DHT22;1611;49.394;11.136;2023-06-26T05:45:19;20.00;45.90
3198;DHT22;1611;49.394;11.136;2023-06-26T05:47:45;20.10;46.00
3198;DHT22;1611;49.394;11.136;2023-06-26T05:50:14;20.10;45.50
3198;DHT22;1611;49.394;11.136;2023-06-26T05:52:41;20.20;45.40
3198;DHT22;1611;49.394;11.136;2023-06-26T05:55:10;20.20;45.20
3198;DHT22;1611;49.394;11.136;2023-06-26T05:57:38;20.40;45.30
3198;DHT22;1611;49.394;11.136;2023-06-26T06:00:08;20.40;45.20
3198;DHT22;1611;49.394;11.136;2023-06-26T06:02:36;20.40;44.60
3198;DHT22;1611;49.394;11.136;2023-06-26T06:05:03;20.50;44.60
3198;DHT22;1611;49.394;11.136;2023-06-26T06:07:31;20.60;44.10
3198;DHT22;1611;49.394;11.136;2023-06-26T06:09:58;20.80;44.50
3198;DHT22;1611;49.394;11.136;2023-06-26T06:12:24;20.90;44.00
3198;DHT22;1611;49.394;11.136;2023-06-26T06:14:51;21.00;43.40
3198;DHT22;1611;49.394;11.136;2023-06-26T06:17:20;21.10;43.80
3198;DHT22;1611;49.394;11.136;2023-06-26T06:19:46;21.30;42.30
3198;DHT22;1611;49.394;11.136;2023-06-26T06:22:13;21.40;41.90
3198;DHT22;1611;49.394;11.136;2023-06-26T06:24:40;21.50;41.10
3198;DHT22;1611;49.394;11.136;2023-06-26T06:27:06;21.60;40.60
3198;DHT22;1611;49.394;11.136;2023-06-26T06:29:33;21.70;39.80
3198;DHT22;1611;49.394;11.136;2023-06-26T06:32:00;21.80;38.70
3198;DHT22;1611;49.394;11.136;2023-06-26T06:34:28;22.00;38.70
3198;DHT22;1611;49.394;11.136;2023-06-26T06:36:55;22.10;38.80
3198;DHT22;1611;49.394;11.136;2023-06-26T06:39:21;22.20;38.30
3198;DHT22;1611;49.394;11.136;2023-06-26T06:41:48;22.30;35.20
3198;DHT22;1611;49.394;11.136;2023-06-26T06:44:15;22.50;34.90
3198;DHT22;1611;49.394;11.136;2023-06-26T06:46:41;22.70;33.80
3198;DHT22;1611;49.394;11.136;2023-06-26T06:49:08;22.90;35.70
3198;DHT22;1611;49.394;11.136;2023-06-26T06:51:36;22.90;36.40
3198;DHT22;1611;49.394;11.136;2023-06-26T06:54:03;23.10;34.90
3198;DHT22;1611;49.394;11.136;2023-06-26T06:56:30;23.20;30.50
3198;DHT22;1611;49.394;11.136;2023-06-26T06:58:56;23.30;28.90
3198;DHT22;1611;49.394;11.136;2023-06-26T07:01:23;23.40;29.80
3198;DHT22;1611;49.394;11.136;2023-06-26T07:03:50;23.60;32.20
3198;DHT22;1611;49.394;11.136;2023-06-26T07:06:17;23.60;31.90
3198;DHT22;1611;49.394;11.136;2023-06-26T07:08:45;23.70;32.00
3198;DHT22;1611;49.394;11.136;2023-06-26T07:11:11;23.90;28.70
3198;DHT22;1611;49.394;11.136;2023-06-26T07:13:38;24.00;27.20
3198;DHT22;1611;49.394;11.136;2023-06-26T07:16:05;24.10;29.10
3198;DHT22;1611;49.394;11.136;2023-06-26T07:18:32;24.30;29.40
3198;DHT22;1611;49.394;11.136;2023-06-26T07:20:58;24.50;27.10
3198;DHT22;1611;49.394;11.136;2023-06-26T07:23:25;24.70;25.10
3198;DHT22;1611;49.394;11.136;2023-06-26T07:25:53;24.80;29.20
3198;DHT22;1611;49.394;11.136;2023-06-26T07:28:20;24.90;28.30
3198;DHT22;1611;49.394;11.136;2023-06-26T07:30:47;24.90;25.00
3198;DHT22;1611;49.394;11.136;2023-06-26T07:33:14;25.00;24.70
3198;DHT22;1611;49.394;11.136;2023-06-26T07:35:40;25.10;24.40
3198;DHT22;1611;49.394;11.136;2023-06-26T07:38:07;25.20;23.00
3198;DHT22;1611;49.394;11.136;2023-06-26T07:40:34;25.30;23.70
3198;DHT22;1611;49.394;11.136;2023-06-26T07:43:02;25.50;26.30
3198;DHT22;1611;49.394;11.136;2023-06-26T07:45:29;25.60;24.00
3198;DHT22;1611;49.394;11.136;2023-06-26T07:47:55;25.70;21.80
3198;DHT22;1611;49.394;11.136;2023-06-26T07:50:22;25.80;22.30
3198;DHT22;1611;49.394;11.136;2023-06-26T07:52:49;26.00;22.60
3198;DHT22;1611;49.394;11.136;2023-06-26T07:55:17;26.00;21.60
3198;DHT22;1611;49.394;11.136;2023-06-26T07:57:44;26.20;22.60
3198;DHT22;1611;49.394;11.136;2023-06-26T08:00:13;26.20;21.40
3198;DHT22;1611;49.394;11.136;2023-06-26T08:02:40;26.40;20.50
3198;DHT22;1611;49.394;11.136;2023-06-26T08:05:07;26.50;20.40
3198;DHT22;1611;49.394;11.136;2023-06-26T08:07:34;26.70;21.30
3198;DHT22;1611;49.394;11.136;2023-06-26T08:10:00;26.70;21.90
3198;DHT22;1611;49.394;11.136;2023-06-26T08:12:27;26.80;21.60
3198;DHT22;1611;49.394;11.136;2023-06-26T08:14:54;26.70;20.30
3198;DHT22;1611;49.394;11.136;2023-06-26T08:17:22;26.80;19.40
3198;DHT22;1611;49.394;11.136;2023-06-26T08:19:49;27.00;19.60
3198;DHT22;1611;49.394;11.136;2023-06-26T08:22:15;27.20;19.40
3198;DHT22;1611;49.394;11.136;2023-06-26T08:24:43;27.40;19.70
3198;DHT22;1611;49.394;11.136;2023-06-26T08:27:10;27.60;19.90
3198;DHT22;1611;49.394;11.136;2023-06-26T08:29:36;27.60;18.90
3198;DHT22;1611;49.394;11.136;2023-06-26T08:32:03;27.80;18.40
3198;DHT22;1611;49.394;11.136;2023-06-26T08:34:32;27.90;18.20
3198;DHT22;1611;49.394;11.136;2023-06-26T08:36:58;28.10;18.10
3198;DHT22;1611;49.394;11.136;2023-06-26T08:39:25;28.30;17.70
3198;DHT22;1611;49.394;11.136;2023-06-26T08:41:52;28.30;18.80
3198;DHT22;1611;49.394;11.136;2023-06-26T08:44:19;28.40;17.60
3198;DHT22;1611;49.394;11.136;2023-06-26T08:46:49;28.60;16.50
3198;DHT22;1611;49.394;11.136;2023-06-26T08:49:20;28.70;17.90
3198;DHT22;1611;49.394;11.136;2023-06-26T08:51:52;28.90;17.50
3198;DHT22;1611;49.394;11.136;2023-06-26T08:54:26;29.00;15.90
3198;DHT22;1611;49.394;11.136;2023-06-26T08:56:55;29.20;16.90
3198;DHT22;1611;49.394;11.136;2023-06-26T08:59:22;29.30;16.90
3198;DHT22;1611;49.394;11.136;2023-06-26T09:01:50;29.30;16.50
3198;DHT22;1611;49.394;11.136;2023-06-26T09:04:16;29.40;15.80
3198;DHT22;1611;49.394;11.136;2023-06-26T09:06:44;29.40;15.30
3198;DHT22;1611;49.394;11.136;2023-06-26T09:09:12;29.50;15.40
3198;DHT22;1611;49.394;11.136;2023-06-26T09:11:39;29.50;14.20
3198;DHT22;1611;49.394;11.136;2023-06-26T09:14:06;29.80;15.20
3198;DHT22;1611;49.394;11.136;2023-06-26T09:16:39;29.80;14.80
3198;DHT22;1611;49.394;11.136;2023-06-26T09:19:09;30.00;15.60
3198;DHT22;1611;49.394;11.136;2023-06-26T09:21:38;30.00;15.20
3198;DHT22;1611;49.394;11.136;2023-06-26T09:24:06;30.00;14.90
3198;DHT22;1611;49.394;11.136;2023-06-26T09:26:35;30.00;14.70
3198;DHT22;1611;49.394;11.136;2023-06-26T09:29:02;30.00;14.70
3198;DHT22;1611;49.394;11.136;2023-06-26T09:31:29;30.00;14.70
3198;DHT22;1611;49.394;11.136;2023-06-26T09:33:58;30.20;14.70
3198;DHT22;1611;49.394;11.136;2023-06-26T09:36:28;30.20;15.10
3198;DHT22;1611;49.394;11.136;2023-06-26T09:38:58;30.20;15.20
3198;DHT22;1611;49.394;11.136;2023-06-26T09:41:25;30.50;15.10
3198;DHT22;1611;49.394;11.136;2023-06-26T09:43:54;30.70;14.40
3198;DHT22;1611;49.394;11.136;2023-06-26T09:46:24;31.00;13.00
3198;DHT22;1611;49.394;11.136;2023-06-26T09:48:58;30.80;11.80
3198;DHT22;1611;49.394;11.136;2023-06-26T09:51:25;30.80;11.90
3198;DHT22;1611;49.394;11.136;2023-06-26T09:53:52;30.70;12.30
3198;DHT22;1611;49.394;11.136;2023-06-26T09:56:19;30.60;11.80
3198;DHT22;1611;49.394;11.136;2023-06-26T09:58:47;30.80;11.70
3198;DHT22;1611;49.394;11.136;2023-06-26T10:01:16;30.80;12.10
3198;DHT22;1611;49.394;11.136;2023-06-26T10:03:43;30.90;11.40
3198;DHT22;1611;49.394;11.136;2023-06-26T10:06:11;31.10;12.00
3198;DHT22;1611;49.394;11.136;2023-06-26T10:08:39;31.40;13.20
3198;DHT22;1611;49.394;11.136;2023-06-26T10:11:10;31.50;11.80
3198;DHT22;1611;49.394;11.136;2023-06-26T10:13:39;31.70;12.10
3198;DHT22;1611;49.394;11.136;2023-06-26T10:16:08;31.90;11.60
3198;DHT22;1611;49.394;11.136;2023-06-26T10:18:38;32.00;11.20
3198;DHT22;1611;49.394;11.136;2023-06-26T10:21:06;32.30;9.50
3198;DHT22;1611;49.394;11.136;2023-06-26T10:23:36;32.50;11.60
3198;DHT22;1611;49.394;11.136;2023-06-26T10:26:06;32.60;10.50
3198;DHT22;1611;49.394;11.136;2023-06-26T10:28:34;32.70;11.20
3198;DHT22;1611;49.394;11.136;2023-06-26T10:31:03;32.60;9.80
3198;DHT22;1611;49.394;11.136;2023-06-26T10:33:30;33.00;11.10
3198;DHT22;1611;49.394;11.136;2023-06-26T10:36:15;33.10;9.60
3198;DHT22;1611;49.394;11.136;2023-06-26T10:38:49;33.00;9.40
3198;DHT22;1611;49.394;11.136;2023-06-26T10:41:19;33.00;9.70
3198;DHT22;1611;49.394;11.136;2023-06-26T10:43:49;33.40;11.90
3198;DHT22;1611;49.394;11.136;2023-06-26T10:46:18;33.70;9.40
3198;DHT22;1611;49.394;11.136;2023-06-26T10:48:58;33.50;8.50
3198;DHT22;1611;49.394;11.136;2023-06-26T10:51:26;33.40;8.40
3198;DHT22;1611;49.394;11.136;2023-06-26T10:53:54;33.60;8.70
3198;DHT22;1611;49.394;11.136;2023-06-26T10:56:21;33.80;9.60
3198;DHT22;1611;49.394;11.136;2023-06-26T10:58:50;34.00;9.60
3198;DHT22;1611;49.394;11.136;2023-06-26T11:01:21;34.00;8.50
3198;DHT22;1611;49.394;11.136;2023-06-26T11:03:59;34.20;8.50
3198;DHT22;1611;49.394;11.136;2023-06-26T11:06:30;34.60;9.30
3198;DHT22;1611;49.394;11.136;2023-06-26T11:09:01;34.80;8.90
3198;DHT22;1611;49.394;11.136;2023-06-26T11:12:00;34.90;8.00
3198;DHT22;1611;49.394;11.136;2023-06-26T11:14:36;35.20;9.10
3198;DHT22;1611;49.394;11.136;2023-06-26T11:17:03;35.10;6.10
3198;DHT22;1611;49.394;11.136;2023-06-26T11:19:30;34.70;7.80
3198;DHT22;1611;49.394;11.136;2023-06-26T11:22:03;34.90;5.40
3198;DHT22;1611;49.394;11.136;2023-06-26T11:24:30;35.00;5.80
3198;DHT22;1611;49.394;11.136;2023-06-26T11:27:04;35.30;6.50
3198;DHT22;1611;49.394;11.136;2023-06-26T11:29:32;35.50;6.50
3198;DHT22;1611;49.394;11.136;2023-06-26T11:32:00;35.80;6.60
3198;DHT22;1611;49.394;11.136;2023-06-26T11:34:30;36.10;5.80
3198;DHT22;1611;49.394;11.136;2023-06-26T11:36:57;36.30;6.80
3198;DHT22;1611;49.394;11.136;2023-06-26T11:39:28;36.50;6.20
3198;DHT22;1611;49.394;11.136;2023-06-26T11:41:55;36.70;4.70
3198;DHT22;1611;49.394;11.136;2023-06-26T11:44:22;37.30;4.90
3198;DHT22;1611;49.394;11.136;2023-06-26T11:46:52;38.40;3.60
3198;DHT22;1611;49.394;11.136;2023-06-26T11:49:21;39.60;2.40
3198;DHT22;1611;49.394;11.136;2023-06-26T11:51:49;40.60;1.00
3198;DHT22;1611;49.394;11.136;2023-06-26T11:54:16;40.70;1.00
3198;DHT22;1611;49.394;11.136;2023-06-26T11:56:56;41.70;1.00
3198;DHT22;1611;49.394;11.136;2023-06-26T11:59:23;42.00;1.00
3198;DHT22;1611;49.394;11.136;2023-06-26T12:01:51;42.50;1.00
3198;DHT22;1611;49.394;11.136;2023-06-26T12:04:19;43.30;1.00
3198;DHT22;1611;49.394;11.136;2023-06-26T12:06:47;43.70;1.00
3198;DHT22;1611;49.394;11.136;2023-06-26T12:09:15;44.20;1.00
3198;DHT22;1611;49.394;11.136;2023-06-26T12:11:45;45.20;1.00
3198;DHT22;1611;49.394;11.136;2023-06-26T12:14:15;45.60;1.00
3198;DHT22;1611;49.394;11.136;2023-06-26T12:16:43;46.50;1.00
3198;DHT22;1611;49.394;11.136;2023-06-26T12:19:10;47.70;1.00
3198;DHT22;1611;49.394;11.136;2023-06-26T12:21:47;48.20;1.00
3198;DHT22;1611;49.394;11.136;2023-06-26T12:24:19;48.70;1.00
3198;DHT22;1611;49.394;11.136;2023-06-26T12:26:48;48.60;1.00
3198;DHT22;1611;49.394;11.136;2023-06-26T12:29:19;47.60;1.00
3198;DHT22;1611;49.394;11.136;2023-06-26T12:31:49;47.00;1.00
3198;DHT22;1611;49.394;11.136;2023-06-26T12:34:18;47.60;1.00
3198;DHT22;1611;49.394;11.136;2023-06-26T12:36:47;48.10;1.00
3198;DHT22;1611;49.394;11.136;2023-06-26T12:39:16;48.60;1.00
3198;DHT22;1611;49.394;11.136;2023-06-26T12:41:51;48.80;1.00
3198;DHT22;1611;49.394;11.136;2023-06-26T12:44:28;47.20;1.00
3198;DHT22;1611;49.394;11.136;2023-06-26T12:46:56;45.10;1.00
3198;DHT22;1611;49.394;11.136;2023-06-26T12:49:30;45.20;1.00
3198;DHT22;1611;49.394;11.136;2023-06-26T12:51:58;46.20;1.00
3198;DHT22;1611;49.394;11.136;2023-06-26T12:54:25;47.50;1.00
3198;DHT22;1611;49.394;11.136;2023-06-26T12:56:51;48.70;1.00
3198;DHT22;1611;49.394;11.136;2023-06-26T12:59:18;49.50;1.00
3198;DHT22;1611;49.394;11.136;2023-06-26T13:01:46;49.90;1.00
3198;DHT22;1611;49.394;11.136;2023-06-26T13:04:13;50.20;1.00
3198;DHT22;1611;49.394;11.136;2023-06-26T13:06:40;50.00;1.00
3198;DHT22;1611;49.394;11.136;2023-06-26T13:09:07;47.40;1.00
3198;DHT22;1611;49.394;11.136;2023-06-26T13:11:34;45.10;1.00
3198;DHT22;1611;49.394;11.136;2023-06-26T13:14:01;43.10;1.00
3198;DHT22;1611;49.394;11.136;2023-06-26T13:16:28;43.70;1.00
3198;DHT22;1611;49.394;11.136;2023-06-26T13:18:58;45.20;1.00
3198;DHT22;1611;49.394;11.136;2023-06-26T13:21:25;46.70;1.00
3198;DHT22;1611;49.394;11.136;2023-06-26T13:23:52;47.90;1.00
3198;DHT22;1611;49.394;11.136;2023-06-26T13:26:19;48.90;1.00
3198;DHT22;1611;49.394;11.136;2023-06-26T13:28:47;48.20;1.00
3198;DHT22;1611;49.394;11.136;2023-06-26T13:31:13;46.60;1.00
3198;DHT22;1611;49.394;11.136;2023-06-26T13:33:40;44.20;1.00
3198;DHT22;1611;49.394;11.136;2023-06-26T13:36:08;43.40;1.00
3198;DHT22;1611;49.394;11.136;2023-06-26T13:38:35;44.00;1.00
3198;DHT22;1611;49.394;11.136;2023-06-26T13:41:02;42.70;1.00
3198;DHT22;1611;49.394;11.136;2023-06-26T13:43:29;41.40;2.00
3198;DHT22;1611;49.394;11.136;2023-06-26T13:45:56;40.30;3.60
3198;DHT22;1611;49.394;11.136;2023-06-26T13:48:23;41.30;3.10
3198;DHT22;1611;49.394;11.136;2023-06-26T13:50:51;42.40;2.20
3198;DHT22;1611;49.394;11.136;2023-06-26T13:53:19;41.60;2.20
3198;DHT22;1611;49.394;11.136;2023-06-26T13:55:46;40.90;2.90
3198;DHT22;1611;49.394;11.136;2023-06-26T13:58:13;40.60;2.90
3198;DHT22;1611;49.394;11.136;2023-06-26T14:00:40;39.90;4.50
3198;DHT22;1611;49.394;11.136;2023-06-26T14:03:10;40.60;3.80
3198;DHT22;1611;49.394;11.136;2023-06-26T14:05:37;41.90;2.40
3198;DHT22;1611;49.394;11.136;2023-06-26T14:08:06;43.60;1.60
3198;DHT22;1611;49.394;11.136;2023-06-26T14:10:34;44.80;1.00
3198;DHT22;1611;49.394;11.136;2023-06-26T14:13:02;45.80;1.00
3198;DHT22;1611;49.394;11.136;2023-06-26T14:15:29;45.60;1.00
3198;DHT22;1611;49.394;11.136;2023-06-26T14:17:56;44.30;1.00
3198;DHT22;1611;49.394;11.136;2023-06-26T14:20:23;44.50;1.00
3198;DHT22;1611;49.394;11.136;2023-06-26T14:22:50;43.10;2.10
3198;DHT22;1611;49.394;11.136;2023-06-26T14:25:17;41.40;3.70
3198;DHT22;1611;49.394;11.136;2023-06-26T14:27:45;41.80;2.60
3198;DHT22;1611;49.394;11.136;2023-06-26T14:30:12;43.70;1.60
3198;DHT22;1611;49.394;11.136;2023-06-26T14:32:39;45.40;1.00
3198;DHT22;1611;49.394;11.136;2023-06-26T14:35:06;45.80;1.00
3198;DHT22;1611;49.394;11.136;2023-06-26T14:37:35;46.30;1.00
3198;DHT22;1611;49.394;11.136;2023-06-26T14:40:02;46.50;1.00
3198;DHT22;1611;49.394;11.136;2023-06-26T14:42:29;46.20;1.00
3198;DHT22;1611;49.394;11.136;2023-06-26T14:44:57;45.20;1.00
3198;DHT22;1611;49.394;11.136;2023-06-26T14:47:24;43.80;1.00
3198;DHT22;1611;49.394;11.136;2023-06-26T14:49:51;42.50;2.10
3198;DHT22;1611;49.394;11.136;2023-06-26T14:52:17;41.10;3.40
3198;DHT22;1611;49.394;11.136;2023-06-26T14:54:44;39.50;4.40
3198;DHT22;1611;49.394;11.136;2023-06-26T14:57:11;38.50;4.90
3198;DHT22;1611;49.394;11.136;2023-06-26T14:59:37;38.60;5.50
3198;DHT22;1611;49.394;11.136;2023-06-26T15:02:06;40.10;4.90
3198;DHT22;1611;49.394;11.136;2023-06-26T15:04:33;40.70;3.90
3198;DHT22;1611;49.394;11.136;2023-06-26T15:06:59;41.20;3.90
3198;DHT22;1611;49.394;11.136;2023-06-26T15:09:26;41.50;3.80
3198;DHT22;1611;49.394;11.136;2023-06-26T15:11:53;42.20;3.30
3198;DHT22;1611;49.394;11.136;2023-06-26T15:14:20;43.00;3.50
3198;DHT22;1611;49.394;11.136;2023-06-26T15:16:46;42.20;3.40
3198;DHT22;1611;49.394;11.136;2023-06-26T15:19:14;41.80;3.80
3198;DHT22;1611;49.394;11.136;2023-06-26T15:21:41;40.80;4.80
3198;DHT22;1611;49.394;11.136;2023-06-26T15:24:08;38.80;6.00
3198;DHT22;1611;49.394;11.136;2023-06-26T15:26:35;37.80;7.60
3198;DHT22;1611;49.394;11.136;2023-06-26T15:29:02;37.40;8.30
3198;DHT22;1611;49.394;11.136;2023-06-26T15:31:29;36.50;8.70
3198;DHT22;1611;49.394;11.136;2023-06-26T15:33:57;35.60;10.00
3198;DHT22;1611;49.394;11.136;2023-06-26T15:36:26;35.10;10.90
3198;DHT22;1611;49.394;11.136;2023-06-26T15:38:53;35.00;11.50
3198;DHT22;1611;49.394;11.136;2023-06-26T15:41:20;34.70;12.10
3198;DHT22;1611;49.394;11.136;2023-06-26T15:43:47;34.60;12.50
3198;DHT22;1611;49.394;11.136;2023-06-26T15:46:13;34.70;12.40
3198;DHT22;1611;49.394;11.136;2023-06-26T15:48:40;34.90;12.10
3198;DHT22;1611;49.394;11.136;2023-06-26T15:51:07;34.30;12.90
3198;DHT22;1611;49.394;11.136;2023-06-26T15:53:37;33.80;13.50